sensor_id;sensor_type;location;lat;lon;timestamp;temperature;humidity
13665;DHT22;6905;50.770;6.730;2023-01-24T00:01:22;2.50;99.90
13665;DHT22;6905;50.770;6.730;2023-01-24T00:10:08;2.40;99.90
13665;DHT22;6905;50.770;6.730;2023-01-24T00:12:51;2.40;99.90
13665;DHT22;6905;50.770;6.730;2023-01-24T00:15:49;2.40;99.90
13665;DHT22;6905;50.770;6.730;2023-01-24T00:19:07;2.40;99.90
13665;DHT22;6905;50.770;6.730;2023-01-24T00:21:51;2.40;99.90
13665;DHT22;6905;50.770;6.730;2023-01-24T00:24:33;2.40;99.90
13665;DHT22;6905;50.770;6.730;2023-01-24T00:27:23;2.40;99.90
13665;DHT22;6905;50.770;6.730;2023-01-24T00:45:39;2.50;99.90
13665;DHT22;6905;50.770;6.730;2023-01-24T00:48:29;2.50;99.90
13665;DHT22;6905;50.770;6.730;2023-01-24T00:51:42;2.50;99.90
13665;DHT22;6905;50.770;6.730;2023-01-24T00:54:36;2.50;99.90
13665;DHT22;6905;50.770;6.730;2023-01-24T00:57:22;2.40;99.90
13665;DHT22;6905;50.770;6.730;2023-01-24T01:00:33;2.50;99.90
13665;DHT22;6905;50.770;6.730;2023-01-24T01:58:15;2.40;99.90
13665;DHT22;6905;50.770;6.730;2023-01-24T02:01:07;2.40;99.90
13665;DHT22;6905;50.770;6.730;2023-01-24T02:04:08;2.40;99.90
13665;DHT22;6905;50.770;6.730;2023-01-24T02:07:16;2.40;99.90
13665;DHT22;6905;50.770;6.730;2023-01-24T02:10:03;2.40;99.90
13665;DHT22;6905;50.770;6.730;2023-01-24T02:12:55;2.40;99.90
13665;DHT22;6905;50.770;6.730;2023-01-24T02:15:54;2.40;99.90
13665;DHT22;6905;50.770;6.730;2023-01-24T02:18:42;2.40;99.90
13665;DHT22;6905;50.770;6.730;2023-01-24T02:21:40;2.40;99.90
13665;DHT22;6905;50.770;6.730;2023-01-24T02:24:50;2.40;99.90
13665;DHT22;6905;50.770;6.730;2023-01-24T02:42:32;2.40;99.90
13665;DHT22;6905;50.770;6.730;2023-01-24T02:45:21;2.40;99.90
13665;DHT22;6905;50.770;6.730;2023-01-24T02:48:25;2.40;99.90
13665;DHT22;6905;50.770;6.730;2023-01-24T02:51:09;2.40;99.90
13665;DHT22;6905;50.770;6.730;2023-01-24T02:53:57;2.40;99.90
13665;DHT22;6905;50.770;6.730;2023-01-24T02:56:57;2.40;99.90
13665;DHT22;6905;50.770;6.730;2023-01-24T03:02:41;2.40;99.90
13665;DHT22;6905;50.770;6.730;2023-01-24T03:05:27;2.40;99.90
13665;DHT22;6905;50.770;6.730;2023-01-24T03:08:10;2.40;99.90
13665;DHT22;6905;50.770;6.730;2023-01-24T03:10:55;2.40;99.90
13665;DHT22;6905;50.770;6.730;2023-01-24T03:13:38;2.40;99.90
13665;DHT22;6905;50.770;6.730;2023-01-24T03:16:26;2.40;99.90
13665;DHT22;6905;50.770;6.730;2023-01-24T03:19:32;2.40;99.90
13665;DHT22;6905;50.770;6.730;2023-01-24T03:22:32;2.40;99.90
13665;DHT22;6905;50.770;6.730;2023-01-24T03:25:17;2.30;99.90
13665;DHT22;6905;50.770;6.730;2023-01-24T04:02:33;2.20;99.90
13665;DHT22;6905;50.770;6.730;2023-01-24T04:05:35;2.20;99.90
13665;DHT22;6905;50.770;6.730;2023-01-24T04:14:23;2.10;99.90
13665;DHT22;6905;50.770;6.730;2023-01-24T04:17:21;2.20;99.90
13665;DHT22;6905;50.770;6.730;2023-01-24T04:23:18;2.20;99.90
13665;DHT22;6905;50.770;6.730;2023-01-24T04:26:12;2.20;99.90
13665;DHT22;6905;50.770;6.730;2023-01-24T04:38:21;2.20;99.90
13665;DHT22;6905;50.770;6.730;2023-01-24T04:41:22;2.20;99.90
13665;DHT22;6905;50.770;6.730;2023-01-24T04:44:09;2.20;99.90
13665;DHT22;6905;50.770;6.730;2023-01-24T04:49:58;2.20;99.90
13665;DHT22;6905;50.770;6.730;2023-01-24T04:59:06;2.10;99.90
13665;DHT22;6905;50.770;6.730;2023-01-24T05:01:59;2.10;99.90
13665;DHT22;6905;50.770;6.730;2023-01-24T05:10:44;2.10;99.90
13665;DHT22;6905;50.770;6.730;2023-01-24T05:13:33;2.10;99.90
13665;DHT22;6905;50.770;6.730;2023-01-24T05:19:16;2.10;99.90
13665;DHT22;6905;50.770;6.730;2023-01-24T05:24:47;2.00;99.90
13665;DHT22;6905;50.770;6.730;2023-01-24T05:27:36;2.10;99.90
13665;DHT22;6905;50.770;6.730;2023-01-24T05:30:19;2.10;99.90
13665;DHT22;6905;50.770;6.730;2023-01-24T05:33:12;2.10;99.90
13665;DHT22;6905;50.770;6.730;2023-01-24T05:36:19;2.10;99.90
13665;DHT22;6905;50.770;6.730;2023-01-24T05:39:01;2.10;99.90
13665;DHT22;6905;50.770;6.730;2023-01-24T05:41:33;2.10;99.90
13665;DHT22;6905;50.770;6.730;2023-01-24T05:44:11;2.00;99.90
13665;DHT22;6905;50.770;6.730;2023-01-24T05:46:52;2.00;99.90
13665;DHT22;6905;50.770;6.730;2023-01-24T05:49:53;2.00;99.90
13665;DHT22;6905;50.770;6.730;2023-01-24T05:55:57;2.00;99.90
13665;DHT22;6905;50.770;6.730;2023-01-24T05:58:48;2.00;99.90
13665;DHT22;6905;50.770;6.730;2023-01-24T06:10:52;2.00;99.90
13665;DHT22;6905;50.770;6.730;2023-01-24T06:14:00;2.00;99.90
13665;DHT22;6905;50.770;6.730;2023-01-24T06:16:44;2.00;99.90
13665;DHT22;6905;50.770;6.730;2023-01-24T06:19:36;2.00;99.90
13665;DHT22;6905;50.770;6.730;2023-01-24T06:22:38;2.00;99.90
13665;DHT22;6905;50.770;6.730;2023-01-24T06:25:24;2.00;99.90
13665;DHT22;6905;50.770;6.730;2023-01-24T06:28:08;2.00;99.90
13665;DHT22;6905;50.770;6.730;2023-01-24T06:31:09;1.90;99.90
13665;DHT22;6905;50.770;6.730;2023-01-24T06:34:00;2.00;99.90
13665;DHT22;6905;50.770;6.730;2023-01-24T06:36:50;2.00;99.90
13665;DHT22;6905;50.770;6.730;2023-01-24T06:39:38;2.00;99.90
13665;DHT22;6905;50.770;6.730;2023-01-24T06:42:22;2.00;99.90
13665;DHT22;6905;50.770;6.730;2023-01-24T06:45:14;2.10;99.90
13665;DHT22;6905;50.770;6.730;2023-01-24T06:51:23;2.00;99.90
13665;DHT22;6905;50.770;6.730;2023-01-24T06:54:09;2.00;99.90
13665;DHT22;6905;50.770;6.730;2023-01-24T06:56:58;2.00;99.90
13665;DHT22;6905;50.770;6.730;2023-01-24T06:59:56;2.00;99.90
13665;DHT22;6905;50.770;6.730;2023-01-24T07:03:17;2.00;99.90
13665;DHT22;6905;50.770;6.730;2023-01-24T07:06:24;2.00;99.90
13665;DHT22;6905;50.770;6.730;2023-01-24T07:09:11;2.10;99.90
13665;DHT22;6905;50.770;6.730;2023-01-24T07:27:30;2.10;99.90
13665;DHT22;6905;50.770;6.730;2023-01-24T07:30:39;2.10;99.90
13665;DHT22;6905;50.770;6.730;2023-01-24T07:33:55;2.00;99.90
13665;DHT22;6905;50.770;6.730;2023-01-24T07:36:57;2.00;99.90
13665;DHT22;6905;50.770;6.730;2023-01-24T07:39:48;2.00;99.90
13665;DHT22;6905;50.770;6.730;2023-01-24T07:42:44;2.00;99.90
13665;DHT22;6905;50.770;6.730;2023-01-24T07:45:44;2.00;99.90
13665;DHT22;6905;50.770;6.730;2023-01-24T07:51:34;2.00;99.90
13665;DHT22;6905;50.770;6.730;2023-01-24T08:39:48;2.20;99.90
13665;DHT22;6905;50.770;6.730;2023-01-24T08:42:51;2.30;99.90
13665;DHT22;6905;50.770;6.730;2023-01-24T08:45:38;2.30;99.90
13665;DHT22;6905;50.770;6.730;2023-01-24T08:54:31;2.30;99.90
13665;DHT22;6905;50.770;6.730;2023-01-24T09:06:14;2.40;99.90
13665;DHT22;6905;50.770;6.730;2023-01-24T09:08:40;2.40;99.90
13665;DHT22;6905;50.770;6.730;2023-01-24T09:11:08;2.50;99.90
13665;DHT22;6905;50.770;6.730;2023-01-24T09:16:47;2.50;99.90
13665;DHT22;6905;50.770;6.730;2023-01-24T09:19:31;2.50;99.90
13665;DHT22;6905;50.770;6.730;2023-01-24T09:22:00;2.50;99.90
13665;DHT22;6905;50.770;6.730;2023-01-24T09:24:29;2.50;99.90
13665;DHT22;6905;50.770;6.730;2023-01-24T09:26:56;2.60;99.90
13665;DHT22;6905;50.770;6.730;2023-01-24T09:29:23;2.60;99.90
13665;DHT22;6905;50.770;6.730;2023-01-24T09:31:51;2.60;99.90
13665;DHT22;6905;50.770;6.730;2023-01-24T09:34:20;2.70;99.90
13665;DHT22;6905;50.770;6.730;2023-01-24T09:36:47;2.70;99.90
13665;DHT22;6905;50.770;6.730;2023-01-24T09:39:17;2.70;99.90
13665;DHT22;6905;50.770;6.730;2023-01-24T09:41:49;2.70;99.90
13665;DHT22;6905;50.770;6.730;2023-01-24T09:44:21;2.80;99.90
13665;DHT22;6905;50.770;6.730;2023-01-24T09:46:49;2.70;99.90
13665;DHT22;6905;50.770;6.730;2023-01-24T09:49:21;2.70;99.90
13665;DHT22;6905;50.770;6.730;2023-01-24T09:51:50;2.80;99.90
13665;DHT22;6905;50.770;6.730;2023-01-24T09:57:05;2.80;99.90
13665;DHT22;6905;50.770;6.730;2023-01-24T09:59:40;2.80;99.90
13665;DHT22;6905;50.770;6.730;2023-01-24T10:02:23;2.80;99.90
13665;DHT22;6905;50.770;6.730;2023-01-24T10:04:55;2.80;99.90
13665;DHT22;6905;50.770;6.730;2023-01-24T10:07:37;2.80;99.90
13665;DHT22;6905;50.770;6.730;2023-01-24T10:10:12;2.80;99.90
13665;DHT22;6905;50.770;6.730;2023-01-24T10:12:56;2.80;99.90
13665;DHT22;6905;50.770;6.730;2023-01-24T10:15:34;2.90;99.90
13665;DHT22;6905;50.770;6.730;2023-01-24T10:18:10;2.90;99.90
13665;DHT22;6905;50.770;6.730;2023-01-24T10:21:09;2.90;99.90
13665;DHT22;6905;50.770;6.730;2023-01-24T10:23:43;3.00;99.90
13665;DHT22;6905;50.770;6.730;2023-01-24T10:26:29;3.00;99.90
13665;DHT22;6905;50.770;6.730;2023-01-24T10:29:14;3.00;99.90
13665;DHT22;6905;50.770;6.730;2023-01-24T10:31:45;3.00;99.90
13665;DHT22;6905;50.770;6.730;2023-01-24T10:34:31;3.00;99.90
13665;DHT22;6905;50.770;6.730;2023-01-24T10:37:14;3.00;99.90
13665;DHT22;6905;50.770;6.730;2023-01-24T10:39:45;3.00;99.90
13665;DHT22;6905;50.770;6.730;2023-01-24T10:42:28;3.00;99.90
13665;DHT22;6905;50.770;6.730;2023-01-24T10:48:26;3.00;99.90
13665;DHT22;6905;50.770;6.730;2023-01-24T10:51:11;3.00;99.90
13665;DHT22;6905;50.770;6.730;2023-01-24T10:53:50;3.10;99.90
13665;DHT22;6905;50.770;6.730;2023-01-24T10:56:33;3.10;99.90
13665;DHT22;6905;50.770;6.730;2023-01-24T10:59:09;3.10;99.90
13665;DHT22;6905;50.770;6.730;2023-01-24T11:01:42;3.10;99.90
13665;DHT22;6905;50.770;6.730;2023-01-24T11:04:17;3.20;99.90
13665;DHT22;6905;50.770;6.730;2023-01-24T11:06:50;3.20;99.90
13665;DHT22;6905;50.770;6.730;2023-01-24T11:09:32;3.20;99.90
13665;DHT22;6905;50.770;6.730;2023-01-24T11:12:15;3.30;99.90
13665;DHT22;6905;50.770;6.730;2023-01-24T11:14:58;3.30;99.90
13665;DHT22;6905;50.770;6.730;2023-01-24T11:17:50;3.40;99.90
13665;DHT22;6905;50.770;6.730;2023-01-24T11:20:38;3.40;99.90
13665;DHT22;6905;50.770;6.730;2023-01-24T11:23:27;3.40;99.90
13665;DHT22;6905;50.770;6.730;2023-01-24T11:26:30;3.40;99.90
13665;DHT22;6905;50.770;6.730;2023-01-24T11:32:26;3.30;99.90
13665;DHT22;6905;50.770;6.730;2023-01-24T11:35:17;3.30;99.90
13665;DHT22;6905;50.770;6.730;2023-01-24T11:40:50;3.30;99.90
13665;DHT22;6905;50.770;6.730;2023-01-24T11:43:29;3.40;99.90
13665;DHT22;6905;50.770;6.730;2023-01-24T11:46:02;3.40;99.90
13665;DHT22;6905;50.770;6.730;2023-01-24T11:48:33;3.40;99.90
13665;DHT22;6905;50.770;6.730;2023-01-24T11:51:03;3.40;99.90
13665;DHT22;6905;50.770;6.730;2023-01-24T11:53:34;3.40;99.90
13665;DHT22;6905;50.770;6.730;2023-01-24T11:56:08;3.40;99.90
13665;DHT22;6905;50.770;6.730;2023-01-24T11:58:40;3.40;99.90
13665;DHT22;6905;50.770;6.730;2023-01-24T12:01:10;3.40;99.90
13665;DHT22;6905;50.770;6.730;2023-01-24T12:06:28;3.50;99.90
13665;DHT22;6905;50.770;6.730;2023-01-24T12:09:06;3.50;99.90
13665;DHT22;6905;50.770;6.730;2023-01-24T12:11:38;3.50;99.90
13665;DHT22;6905;50.770;6.730;2023-01-24T12:14:21;3.50;99.90
13665;DHT22;6905;50.770;6.730;2023-01-24T12:16:53;3.60;99.90
13665;DHT22;6905;50.770;6.730;2023-01-24T12:19:30;3.60;99.90
13665;DHT22;6905;50.770;6.730;2023-01-24T12:22:05;3.60;99.90
13665;DHT22;6905;50.770;6.730;2023-01-24T12:24:35;3.50;99.90
13665;DHT22;6905;50.770;6.730;2023-01-24T12:27:06;3.50;99.90
13665;DHT22;6905;50.770;6.730;2023-01-24T12:29:33;3.50;99.90
13665;DHT22;6905;50.770;6.730;2023-01-24T12:32:05;3.50;99.90
13665;DHT22;6905;50.770;6.730;2023-01-24T12:34:37;3.50;99.90
13665;DHT22;6905;50.770;6.730;2023-01-24T12:37:09;3.50;99.90
13665;DHT22;6905;50.770;6.730;2023-01-24T12:39:37;3.50;99.90
13665;DHT22;6905;50.770;6.730;2023-01-24T12:42:11;3.50;99.90
13665;DHT22;6905;50.770;6.730;2023-01-24T12:44:47;3.50;99.90
13665;DHT22;6905;50.770;6.730;2023-01-24T12:47:25;3.50;99.90
13665;DHT22;6905;50.770;6.730;2023-01-24T12:50:03;3.50;99.90
13665;DHT22;6905;50.770;6.730;2023-01-24T12:52:35;3.50;99.90
13665;DHT22;6905;50.770;6.730;2023-01-24T12:55:08;3.60;99.90
13665;DHT22;6905;50.770;6.730;2023-01-24T12:57:39;3.60;99.90
13665;DHT22;6905;50.770;6.730;2023-01-24T13:00:14;3.60;99.90
13665;DHT22;6905;50.770;6.730;2023-01-24T13:05:31;3.60;99.90
13665;DHT22;6905;50.770;6.730;2023-01-24T13:08:10;3.60;99.90
13665;DHT22;6905;50.770;6.730;2023-01-24T13:10:45;3.60;99.90
13665;DHT22;6905;50.770;6.730;2023-01-24T13:13:15;3.60;99.90
13665;DHT22;6905;50.770;6.730;2023-01-24T13:15:47;3.60;99.90
13665;DHT22;6905;50.770;6.730;2023-01-24T13:18:22;3.70;99.90
13665;DHT22;6905;50.770;6.730;2023-01-24T13:20:54;3.70;99.90
13665;DHT22;6905;50.770;6.730;2023-01-24T13:23:38;3.70;99.90
13665;DHT22;6905;50.770;6.730;2023-01-24T13:28:55;3.80;99.90
13665;DHT22;6905;50.770;6.730;2023-01-24T13:31:28;3.80;99.90
13665;DHT22;6905;50.770;6.730;2023-01-24T13:33:55;3.80;99.90
13665;DHT22;6905;50.770;6.730;2023-01-24T13:36:25;3.80;99.90
13665;DHT22;6905;50.770;6.730;2023-01-24T13:38:53;3.80;99.90
13665;DHT22;6905;50.770;6.730;2023-01-24T13:41:31;3.70;99.90
13665;DHT22;6905;50.770;6.730;2023-01-24T13:44:01;3.70;99.90
13665;DHT22;6905;50.770;6.730;2023-01-24T13:49:16;3.60;99.90
13665;DHT22;6905;50.770;6.730;2023-01-24T13:51:43;3.70;99.90
13665;DHT22;6905;50.770;6.730;2023-01-24T13:54:18;3.70;99.90
13665;DHT22;6905;50.770;6.730;2023-01-24T13:59:38;3.70;99.90
13665;DHT22;6905;50.770;6.730;2023-01-24T14:04:56;3.70;99.90
13665;DHT22;6905;50.770;6.730;2023-01-24T14:07:26;3.70;99.90
13665;DHT22;6905;50.770;6.730;2023-01-24T14:09:56;3.60;99.90
13665;DHT22;6905;50.770;6.730;2023-01-24T14:12:23;3.60;99.90
13665;DHT22;6905;50.770;6.730;2023-01-24T14:15:02;3.60;99.90
13665;DHT22;6905;50.770;6.730;2023-01-24T14:17:45;3.50;99.90
13665;DHT22;6905;50.770;6.730;2023-01-24T14:20:21;3.50;99.90
13665;DHT22;6905;50.770;6.730;2023-01-24T14:22:50;3.50;99.90
13665;DHT22;6905;50.770;6.730;2023-01-24T14:25:30;3.50;99.90
13665;DHT22;6905;50.770;6.730;2023-01-24T14:27:59;3.50;99.90
13665;DHT22;6905;50.770;6.730;2023-01-24T14:30:35;3.50;99.90
13665;DHT22;6905;50.770;6.730;2023-01-24T14:33:13;3.50;99.90
13665;DHT22;6905;50.770;6.730;2023-01-24T14:35:47;3.50;99.90
13665;DHT22;6905;50.770;6.730;2023-01-24T14:38:17;3.50;99.90
13665;DHT22;6905;50.770;6.730;2023-01-24T14:40:45;3.50;99.90
13665;DHT22;6905;50.770;6.730;2023-01-24T14:43:14;3.50;99.90
13665;DHT22;6905;50.770;6.730;2023-01-24T14:45:42;3.50;99.90
13665;DHT22;6905;50.770;6.730;2023-01-24T14:48:09;3.50;99.90
13665;DHT22;6905;50.770;6.730;2023-01-24T14:50:37;3.40;99.90
13665;DHT22;6905;50.770;6.730;2023-01-24T14:53:21;3.50;99.90
13665;DHT22;6905;50.770;6.730;2023-01-24T14:55:48;3.50;99.90
13665;DHT22;6905;50.770;6.730;2023-01-24T14:58:19;3.40;99.90
13665;DHT22;6905;50.770;6.730;2023-01-24T15:00:47;3.50;99.90
13665;DHT22;6905;50.770;6.730;2023-01-24T15:03:15;3.40;99.90
13665;DHT22;6905;50.770;6.730;2023-01-24T15:05:48;3.40;99.90
13665;DHT22;6905;50.770;6.730;2023-01-24T15:08:15;3.40;99.90
13665;DHT22;6905;50.770;6.730;2023-01-24T15:10:42;3.30;99.90
13665;DHT22;6905;50.770;6.730;2023-01-24T15:13:10;3.30;99.90
13665;DHT22;6905;50.770;6.730;2023-01-24T15:15:47;3.30;99.90
13665;DHT22;6905;50.770;6.730;2023-01-24T15:18:23;3.30;99.90
13665;DHT22;6905;50.770;6.730;2023-01-24T15:20:51;3.30;99.90
13665;DHT22;6905;50.770;6.730;2023-01-24T15:23:19;3.30;99.90
13665;DHT22;6905;50.770;6.730;2023-01-24T15:25:46;3.30;99.90
13665;DHT22;6905;50.770;6.730;2023-01-24T15:28:18;3.20;99.90
13665;DHT22;6905;50.770;6.730;2023-01-24T15:30:51;3.20;99.90
13665;DHT22;6905;50.770;6.730;2023-01-24T15:33:18;3.20;99.90
13665;DHT22;6905;50.770;6.730;2023-01-24T15:35:45;3.20;99.90
13665;DHT22;6905;50.770;6.730;2023-01-24T15:41:11;3.20;99.90
13665;DHT22;6905;50.770;6.730;2023-01-24T15:43:40;3.20;99.90
13665;DHT22;6905;50.770;6.730;2023-01-24T15:46:18;3.20;99.90
13665;DHT22;6905;50.770;6.730;2023-01-24T15:49:04;3.10;99.90
13665;DHT22;6905;50.770;6.730;2023-01-24T15:51:32;3.10;99.90
13665;DHT22;6905;50.770;6.730;2023-01-24T15:53:58;3.10;99.90
13665;DHT22;6905;50.770;6.730;2023-01-24T15:56:25;3.10;99.90
13665;DHT22;6905;50.770;6.730;2023-01-24T15:58:53;3.10;99.90
13665;DHT22;6905;50.770;6.730;2023-01-24T16:01:21;3.10;99.90
13665;DHT22;6905;50.770;6.730;2023-01-24T16:03:54;3.00;99.90
13665;DHT22;6905;50.770;6.730;2023-01-24T16:06:20;3.00;99.90
13665;DHT22;6905;50.770;6.730;2023-01-24T16:08:47;3.00;99.90
13665;DHT22;6905;50.770;6.730;2023-01-24T16:11:13;3.00;99.90
13665;DHT22;6905;50.770;6.730;2023-01-24T16:13:41;3.00;99.90
13665;DHT22;6905;50.770;6.730;2023-01-24T16:16:11;3.00;99.90
13665;DHT22;6905;50.770;6.730;2023-01-24T16:18:40;3.00;99.90
13665;DHT22;6905;50.770;6.730;2023-01-24T16:21:07;3.00;99.90
13665;DHT22;6905;50.770;6.730;2023-01-24T16:23:35;3.00;99.90
13665;DHT22;6905;50.770;6.730;2023-01-24T16:26:01;3.00;99.90
13665;DHT22;6905;50.770;6.730;2023-01-24T16:28:28;3.00;99.90
13665;DHT22;6905;50.770;6.730;2023-01-24T16:30:59;3.00;99.90
13665;DHT22;6905;50.770;6.730;2023-01-24T16:33:25;3.00;99.90
13665;DHT22;6905;50.770;6.730;2023-01-24T16:35:54;2.90;99.90
13665;DHT22;6905;50.770;6.730;2023-01-24T16:38:20;2.90;99.90
13665;DHT22;6905;50.770;6.730;2023-01-24T16:40:47;2.90;99.90
13665;DHT22;6905;50.770;6.730;2023-01-24T16:43:16;2.90;99.90
13665;DHT22;6905;50.770;6.730;2023-01-24T16:45:43;2.90;99.90
13665;DHT22;6905;50.770;6.730;2023-01-24T16:48:10;2.90;99.90
13665;DHT22;6905;50.770;6.730;2023-01-24T16:50:37;2.90;99.90
13665;DHT22;6905;50.770;6.730;2023-01-24T16:53:06;2.80;99.90
13665;DHT22;6905;50.770;6.730;2023-01-24T16:55:33;2.80;99.90
13665;DHT22;6905;50.770;6.730;2023-01-24T16:58:03;2.80;99.90
13665;DHT22;6905;50.770;6.730;2023-01-24T17:00:29;2.80;99.90
13665;DHT22;6905;50.770;6.730;2023-01-24T17:02:56;2.80;99.90
13665;DHT22;6905;50.770;6.730;2023-01-24T17:05:24;2.70;99.90
13665;DHT22;6905;50.770;6.730;2023-01-24T17:07:51;2.70;99.90
13665;DHT22;6905;50.770;6.730;2023-01-24T17:10:18;2.70;99.90
13665;DHT22;6905;50.770;6.730;2023-01-24T17:12:45;2.70;99.90
13665;DHT22;6905;50.770;6.730;2023-01-24T17:15:15;2.60;99.90
13665;DHT22;6905;50.770;6.730;2023-01-24T17:17:45;2.60;99.90
13665;DHT22;6905;50.770;6.730;2023-01-24T17:20:12;2.60;99.90
13665;DHT22;6905;50.770;6.730;2023-01-24T17:22:38;2.60;99.90
13665;DHT22;6905;50.770;6.730;2023-01-24T17:25:06;2.60;99.90
13665;DHT22;6905;50.770;6.730;2023-01-24T17:27:34;2.60;99.90
13665;DHT22;6905;50.770;6.730;2023-01-24T17:30:00;2.60;99.90
13665;DHT22;6905;50.770;6.730;2023-01-24T17:32:27;2.60;99.90
13665;DHT22;6905;50.770;6.730;2023-01-24T17:34:54;2.60;99.90
13665;DHT22;6905;50.770;6.730;2023-01-24T17:37:22;2.60;99.90
13665;DHT22;6905;50.770;6.730;2023-01-24T17:39:49;2.60;99.90
13665;DHT22;6905;50.770;6.730;2023-01-24T17:42:16;2.60;99.90
13665;DHT22;6905;50.770;6.730;2023-01-24T17:44:44;2.60;99.90
13665;DHT22;6905;50.770;6.730;2023-01-24T17:47:11;2.60;99.90
13665;DHT22;6905;50.770;6.730;2023-01-24T17:49:51;2.60;99.90
13665;DHT22;6905;50.770;6.730;2023-01-24T17:52:20;2.60;99.90
13665;DHT22;6905;50.770;6.730;2023-01-24T17:54:47;2.60;99.90
13665;DHT22;6905;50.770;6.730;2023-01-24T17:57:13;2.60;99.90
13665;DHT22;6905;50.770;6.730;2023-01-24T17:59:40;2.60;99.90
13665;DHT22;6905;50.770;6.730;2023-01-24T18:02:09;2.50;99.90
13665;DHT22;6905;50.770;6.730;2023-01-24T18:04:35;2.50;99.90
13665;DHT22;6905;50.770;6.730;2023-01-24T18:07:02;2.50;99.90
13665;DHT22;6905;50.770;6.730;2023-01-24T18:24:53;2.40;99.90
13665;DHT22;6905;50.770;6.730;2023-01-24T18:27:20;2.40;99.90
13665;DHT22;6905;50.770;6.730;2023-01-24T18:29:47;2.40;99.90
13665;DHT22;6905;50.770;6.730;2023-01-24T18:35:44;2.40;99.90
13665;DHT22;6905;50.770;6.730;2023-01-24T18:38:13;2.30;99.90
13665;DHT22;6905;50.770;6.730;2023-01-24T18:40:44;2.30;99.90
13665;DHT22;6905;50.770;6.730;2023-01-24T18:43:11;2.30;99.90
13665;DHT22;6905;50.770;6.730;2023-01-24T18:45:38;2.30;99.90
13665;DHT22;6905;50.770;6.730;2023-01-24T18:48:07;2.30;99.90
13665;DHT22;6905;50.770;6.730;2023-01-24T18:50:35;2.30;99.90
13665;DHT22;6905;50.770;6.730;2023-01-24T18:53:02;2.30;99.90
13665;DHT22;6905;50.770;6.730;2023-01-24T18:55:28;2.30;99.90
13665;DHT22;6905;50.770;6.730;2023-01-24T18:57:58;2.30;99.90
13665;DHT22;6905;50.770;6.730;2023-01-24T19:00:32;2.30;99.90
13665;DHT22;6905;50.770;6.730;2023-01-24T19:02:59;2.30;99.90
13665;DHT22;6905;50.770;6.730;2023-01-24T19:05:26;2.30;99.90
13665;DHT22;6905;50.770;6.730;2023-01-24T19:07:52;2.30;99.90
13665;DHT22;6905;50.770;6.730;2023-01-24T19:10:19;2.30;99.90
13665;DHT22;6905;50.770;6.730;2023-01-24T19:12:46;2.30;99.90
13665;DHT22;6905;50.770;6.730;2023-01-24T19:15:14;2.30;99.90
13665;DHT22;6905;50.770;6.730;2023-01-24T19:21:04;2.30;99.90
13665;DHT22;6905;50.770;6.730;2023-01-24T19:23:33;2.30;99.90
13665;DHT22;6905;50.770;6.730;2023-01-24T19:26:00;2.30;99.90
13665;DHT22;6905;50.770;6.730;2023-01-24T19:28:27;2.30;99.90
13665;DHT22;6905;50.770;6.730;2023-01-24T19:31:01;2.30;99.90
13665;DHT22;6905;50.770;6.730;2023-01-24T19:33:35;2.30;99.90
13665;DHT22;6905;50.770;6.730;2023-01-24T19:36:08;2.30;99.90
13665;DHT22;6905;50.770;6.730;2023-01-24T19:38:35;2.30;99.90
13665;DHT22;6905;50.770;6.730;2023-01-24T19:41:02;2.30;99.90
13665;DHT22;6905;50.770;6.730;2023-01-24T19:43:29;2.30;99.90
13665;DHT22;6905;50.770;6.730;2023-01-24T19:45:57;2.30;99.90
13665;DHT22;6905;50.770;6.730;2023-01-24T19:48:24;2.30;99.90
13665;DHT22;6905;50.770;6.730;2023-01-24T19:50:50;2.20;99.90
13665;DHT22;6905;50.770;6.730;2023-01-24T19:53:17;2.20;99.90
13665;DHT22;6905;50.770;6.730;2023-01-24T19:55:44;2.20;99.90
13665;DHT22;6905;50.770;6.730;2023-01-24T19:58:10;2.20;99.90
13665;DHT22;6905;50.770;6.730;2023-01-24T20:00:37;2.20;99.90
13665;DHT22;6905;50.770;6.730;2023-01-24T20:03:13;2.20;99.90
13665;DHT22;6905;50.770;6.730;2023-01-24T20:05:41;2.10;99.90
13665;DHT22;6905;50.770;6.730;2023-01-24T20:08:08;2.10;99.90
13665;DHT22;6905;50.770;6.730;2023-01-24T20:10:36;2.10;99.90
13665;DHT22;6905;50.770;6.730;2023-01-24T20:13:03;2.10;99.90
13665;DHT22;6905;50.770;6.730;2023-01-24T20:15:30;2.10;99.90
13665;DHT22;6905;50.770;6.730;2023-01-24T20:17:58;2.10;99.90
13665;DHT22;6905;50.770;6.730;2023-01-24T20:20:27;2.10;99.90
13665;DHT22;6905;50.770;6.730;2023-01-24T20:22:54;2.10;99.90
13665;DHT22;6905;50.770;6.730;2023-01-24T20:25:20;2.10;99.90
13665;DHT22;6905;50.770;6.730;2023-01-24T20:27:48;2.10;99.90
13665;DHT22;6905;50.770;6.730;2023-01-24T20:30:15;2.10;99.90
13665;DHT22;6905;50.770;6.730;2023-01-24T20:32:42;2.10;99.90
13665;DHT22;6905;50.770;6.730;2023-01-24T20:35:09;2.00;99.90
13665;DHT22;6905;50.770;6.730;2023-01-24T20:37:37;2.00;99.90
13665;DHT22;6905;50.770;6.730;2023-01-24T20:40:04;2.10;99.90
13665;DHT22;6905;50.770;6.730;2023-01-24T20:42:31;2.00;99.90
13665;DHT22;6905;50.770;6.730;2023-01-24T20:45:06;2.00;99.90
13665;DHT22;6905;50.770;6.730;2023-01-24T20:47:33;2.00;99.90
13665;DHT22;6905;50.770;6.730;2023-01-24T20:50:00;2.00;99.90
13665;DHT22;6905;50.770;6.730;2023-01-24T20:52:27;2.10;99.90
13665;DHT22;6905;50.770;6.730;2023-01-24T20:54:55;2.00;99.90
13665;DHT22;6905;50.770;6.730;2023-01-24T20:57:21;2.10;99.90
13665;DHT22;6905;50.770;6.730;2023-01-24T20:59:48;2.10;99.90
13665;DHT22;6905;50.770;6.730;2023-01-24T21:02:15;2.10;99.90
13665;DHT22;6905;50.770;6.730;2023-01-24T21:04:42;2.10;99.90
13665;DHT22;6905;50.770;6.730;2023-01-24T21:07:08;2.10;99.90
13665;DHT22;6905;50.770;6.730;2023-01-24T21:09:35;2.00;99.90
13665;DHT22;6905;50.770;6.730;2023-01-24T21:12:06;2.10;99.90
13665;DHT22;6905;50.770;6.730;2023-01-24T21:14:33;2.10;99.90
13665;DHT22;6905;50.770;6.730;2023-01-24T21:17:02;2.10;99.90
13665;DHT22;6905;50.770;6.730;2023-01-24T21:19:29;2.10;99.90
13665;DHT22;6905;50.770;6.730;2023-01-24T21:22:07;2.10;99.90
13665;DHT22;6905;50.770;6.730;2023-01-24T21:24:34;2.10;99.90
13665;DHT22;6905;50.770;6.730;2023-01-24T21:27:06;2.10;99.90
13665;DHT22;6905;50.770;6.730;2023-01-24T21:29:33;2.10;99.90
13665;DHT22;6905;50.770;6.730;2023-01-24T21:32:00;2.10;99.90
13665;DHT22;6905;50.770;6.730;2023-01-24T21:34:27;2.10;99.90
13665;DHT22;6905;50.770;6.730;2023-01-24T21:36:54;2.10;99.90
13665;DHT22;6905;50.770;6.730;2023-01-24T21:39:21;2.10;99.90
13665;DHT22;6905;50.770;6.730;2023-01-24T21:41:49;2.10;99.90
13665;DHT22;6905;50.770;6.730;2023-01-24T21:44:22;2.10;99.90
13665;DHT22;6905;50.770;6.730;2023-01-24T21:46:49;2.10;99.90
13665;DHT22;6905;50.770;6.730;2023-01-24T21:49:16;2.00;99.90
13665;DHT22;6905;50.770;6.730;2023-01-24T21:51:43;2.00;99.90
13665;DHT22;6905;50.770;6.730;2023-01-24T21:54:11;2.00;99.90
13665;DHT22;6905;50.770;6.730;2023-01-24T21:56:38;2.00;99.90
13665;DHT22;6905;50.770;6.730;2023-01-24T21:59:25;2.00;99.90
13665;DHT22;6905;50.770;6.730;2023-01-24T22:01:53;2.00;99.90
13665;DHT22;6905;50.770;6.730;2023-01-24T22:04:20;2.00;99.90
13665;DHT22;6905;50.770;6.730;2023-01-24T22:06:49;2.00;99.90
13665;DHT22;6905;50.770;6.730;2023-01-24T22:09:16;2.00;99.90
13665;DHT22;6905;50.770;6.730;2023-01-24T22:11:44;2.00;99.90
13665;DHT22;6905;50.770;6.730;2023-01-24T22:14:15;2.00;99.90
13665;DHT22;6905;50.770;6.730;2023-01-24T22:16:44;1.90;99.90
13665;DHT22;6905;50.770;6.730;2023-01-24T22:19:11;1.90;99.90
13665;DHT22;6905;50.770;6.730;2023-01-24T22:21:59;1.90;99.90